createdAt,value
2019-05-01T00:02:31.182Z,23.77
2019-05-01T00:05:24.628Z,25.90
2019-05-01T00:07:55.044Z,25.50
2019-05-01T00:10:26.577Z,23.47
2019-05-01T00:12:56.926Z,26.80
2019-05-01T00:15:30.261Z,24.03
2019-05-01T00:18:04.459Z,23.90
2019-05-01T00:20:35.145Z,29.00
2019-05-01T00:23:05.432Z,22.57
2019-05-01T00:25:35.620Z,25.57
2019-05-01T00:28:06.296Z,24.13
2019-05-01T00:30:37.347Z,20.90
2019-05-01T00:33:07.412Z,22.47
2019-05-01T00:35:37.391Z,23.37
2019-05-01T00:38:07.604Z,28.73
2019-05-01T00:40:37.668Z,24.03
2019-05-01T00:43:07.729Z,21.80
2019-05-01T00:45:37.652Z,22.90
2019-05-01T00:48:08.750Z,22.60
2019-05-01T00:50:38.690Z,25.23
2019-05-01T00:53:09.134Z,22.33
2019-05-01T00:55:49.183Z,23.77
2019-05-01T00:58:42.711Z,24.20
2019-05-01T01:01:29.846Z,25.43
2019-05-01T01:04:00.218Z,23.93
2019-05-01T01:06:30.270Z,24.33
2019-05-01T01:09:00.434Z,28.73
2019-05-01T01:11:30.333Z,27.10
2019-05-01T01:14:00.347Z,25.23
2019-05-01T01:16:30.455Z,25.47
2019-05-01T01:19:00.492Z,28.30
2019-05-01T01:21:30.573Z,26.67
2019-05-01T01:24:01.017Z,24.77
2019-05-01T01:26:31.166Z,22.27
2019-05-01T01:29:01.199Z,28.97
2019-05-01T01:31:31.356Z,24.33
2019-05-01T01:34:01.538Z,25.23
2019-05-01T01:36:31.518Z,24.57
2019-05-01T01:39:01.648Z,27.03
2019-05-01T01:41:32.069Z,30.10
2019-05-01T01:44:12.570Z,27.43
2019-05-01T01:46:43.255Z,26.57
2019-05-01T01:49:13.450Z,24.47
2019-05-01T01:51:43.567Z,32.53
2019-05-01T01:54:13.848Z,24.67
2019-05-01T01:56:43.959Z,25.67
2019-05-01T01:59:14.395Z,26.17
2019-05-01T02:02:01.666Z,28.57
2019-05-01T02:04:49.546Z,27.40
2019-05-01T02:07:19.706Z,23.90
2019-05-01T02:09:49.935Z,25.30
2019-05-01T02:12:20.560Z,23.50
2019-05-01T02:14:50.794Z,28.63
2019-05-01T02:17:20.923Z,26.00
2019-05-01T02:19:50.919Z,24.07
2019-05-01T02:22:21.042Z,28.57
2019-05-01T02:24:51.023Z,24.20
2019-05-01T02:27:27.232Z,28.07
2019-05-01T02:29:59.718Z,25.90
2019-05-01T02:32:31.012Z,25.97
2019-05-01T02:35:01.582Z,28.20
2019-05-01T02:37:34.199Z,25.97
2019-05-01T02:40:07.972Z,24.27
2019-05-01T02:42:40.558Z,25.57
2019-05-01T02:45:11.184Z,24.27
2019-05-01T02:47:43.966Z,25.83
2019-05-01T02:50:14.536Z,33.37
2019-05-01T02:52:45.469Z,26.03
2019-05-01T02:55:23.828Z,25.27
2019-05-01T02:57:54.031Z,27.37
2019-05-01T03:00:24.318Z,28.73
2019-05-01T03:02:55.226Z,24.47
2019-05-01T03:05:25.504Z,27.60
2019-05-01T03:07:55.672Z,29.20
2019-05-01T03:10:25.760Z,25.87
2019-05-01T03:12:56.809Z,24.73
2019-05-01T03:15:29.809Z,25.10
2019-05-01T03:18:20.147Z,27.57
2019-05-01T03:21:05.233Z,27.00
2019-05-01T03:23:39.106Z,22.47
2019-05-01T03:26:09.415Z,24.73
2019-05-01T03:28:39.974Z,23.70
2019-05-01T03:31:10.063Z,25.23
2019-05-01T03:33:40.574Z,27.47
2019-05-01T03:36:10.835Z,26.87
2019-05-01T03:38:41.015Z,22.60
2019-05-01T03:41:11.255Z,27.53
2019-05-01T03:43:41.830Z,25.90
2019-05-01T03:46:11.944Z,24.80
2019-05-01T03:48:43.090Z,26.73
2019-05-01T03:51:13.581Z,29.33
2019-05-01T03:53:43.900Z,25.53
2019-05-01T03:56:14.339Z,25.23
2019-05-01T03:58:45.946Z,24.20
2019-05-01T04:01:25.538Z,25.77
2019-05-01T04:04:01.615Z,23.27
2019-05-01T04:06:31.829Z,22.03
2019-05-01T04:09:02.079Z,24.63
2019-05-01T04:11:32.270Z,25.73
2019-05-01T04:14:02.383Z,27.67
2019-05-01T04:16:32.859Z,27.13
2019-05-01T04:19:03.833Z,23.37
2019-05-01T04:21:41.465Z,23.87
2019-05-01T04:24:11.632Z,29.33
2019-05-01T04:26:41.684Z,26.77
2019-05-01T04:29:30.997Z,25.70
2019-05-01T04:32:18.160Z,27.93
2019-05-01T04:35:16.986Z,25.53
2019-05-01T04:37:47.888Z,24.37
2019-05-01T04:40:19.256Z,25.20
2019-05-01T04:42:49.889Z,24.53
2019-05-01T04:45:21.865Z,23.00
2019-05-01T04:47:52.885Z,31.00
2019-05-01T04:50:23.344Z,24.00
2019-05-01T04:52:53.662Z,24.70
2019-05-01T04:55:24.047Z,26.90
2019-05-01T04:57:54.141Z,21.70
2019-05-01T05:00:24.246Z,22.97
2019-05-01T05:03:05.502Z,20.87
2019-05-01T05:05:35.940Z,24.37
2019-05-01T05:08:06.126Z,21.80
2019-05-01T05:10:36.679Z,23.70
2019-05-01T05:13:16.115Z,23.53
2019-05-01T05:15:52.414Z,24.60
2019-05-01T05:18:22.596Z,22.37
2019-05-01T05:20:52.867Z,22.60
2019-05-01T05:23:23.879Z,19.83
2019-05-01T05:25:54.857Z,20.90
2019-05-01T05:28:26.031Z,21.97
2019-05-01T05:30:57.322Z,17.63
2019-05-01T05:33:29.853Z,23.43
2019-05-01T05:36:00.578Z,22.93
2019-05-01T05:38:59.813Z,22.63
2019-05-01T05:41:31.940Z,20.63
2019-05-01T05:44:02.310Z,22.37
2019-05-01T05:46:32.516Z,22.23
2019-05-01T05:49:02.801Z,20.97
2019-05-01T05:51:58.409Z,19.77
2019-05-01T05:54:48.560Z,22.50
2019-05-01T05:57:26.120Z,22.93
2019-05-01T06:00:02.216Z,19.27
2019-05-01T06:02:57.040Z,22.07
2019-05-01T06:05:47.794Z,21.47
2019-05-01T06:08:24.552Z,25.33
2019-05-01T06:11:17.470Z,26.67
2019-05-01T06:14:19.465Z,20.77
2019-05-01T06:17:04.384Z,21.60
2019-05-01T06:19:49.704Z,19.47
2019-05-01T06:22:57.295Z,20.80
2019-05-01T06:25:31.865Z,22.50
2019-05-01T06:28:02.016Z,19.23
2019-05-01T06:30:34.014Z,20.53
2019-05-01T06:33:04.047Z,22.63
2019-05-01T06:35:38.126Z,20.17
2019-05-01T06:38:13.263Z,21.33
2019-05-01T06:40:45.430Z,20.33
2019-05-01T06:43:40.378Z,19.23
2019-05-01T06:46:31.335Z,18.77
2019-05-01T06:49:18.856Z,17.60
2019-05-01T06:51:55.223Z,21.57
2019-05-01T06:54:27.914Z,19.07
2019-05-01T06:57:00.032Z,17.40
2019-05-01T06:59:33.184Z,18.90
2019-05-01T07:02:03.346Z,23.23
2019-05-01T07:04:37.890Z,20.73
2019-05-01T07:07:07.103Z,19.33
2019-05-01T07:09:38.725Z,21.07
2019-05-01T07:12:13.874Z,20.60
2019-05-01T07:14:47.154Z,21.27
2019-05-01T07:17:18.434Z,20.93
2019-05-01T07:20:06.728Z,19.97
2019-05-01T07:22:42.216Z,19.57
2019-05-01T07:25:10.283Z,23.73
2019-05-01T07:27:40.282Z,18.63
2019-05-01T07:30:27.164Z,19.57
2019-05-01T07:33:02.695Z,18.80
2019-05-01T07:35:36.799Z,20.37
2019-05-01T07:38:05.136Z,18.67
2019-05-01T07:40:35.705Z,16.55
2019-05-01T07:43:13.239Z,18.95
2019-05-01T07:46:08.655Z,17.82
2019-05-01T07:48:41.977Z,19.15
2019-05-01T07:51:13.122Z,18.75
2019-05-01T07:53:46.423Z,18.77
2019-05-01T07:56:17.233Z,15.70
2019-05-01T07:58:51.890Z,19.70
2019-05-01T08:01:36.247Z,16.20
2019-05-01T08:04:06.342Z,18.82
2019-05-01T08:06:36.166Z,17.95
2019-05-01T08:09:11.229Z,17.55
2019-05-01T08:11:43.600Z,21.42
2019-05-01T08:14:11.922Z,17.12
2019-05-01T08:16:43.688Z,18.23
2019-05-01T08:19:22.450Z,18.40
2019-05-01T08:22:01.820Z,26.45
2019-05-01T08:24:32.187Z,17.12
2019-05-01T08:27:02.358Z,15.00
2019-05-01T08:29:54.272Z,16.65
2019-05-01T08:32:39.462Z,14.35
2019-05-01T08:35:10.125Z,16.42
2019-05-01T08:37:40.426Z,14.63
2019-05-01T08:40:11.255Z,14.07
2019-05-01T08:42:42.533Z,14.20
2019-05-01T08:45:30.205Z,15.08
2019-05-01T08:48:06.696Z,13.48
2019-05-01T08:50:36.706Z,13.15
2019-05-01T08:53:06.801Z,12.33
2019-05-01T08:55:39.774Z,14.13
2019-05-01T08:58:08.780Z,13.45
2019-05-01T09:00:41.279Z,16.57
2019-05-01T09:03:13.625Z,17.10
2019-05-01T09:05:44.697Z,18.12
2019-05-01T09:08:15.109Z,15.72
2019-05-01T09:10:45.177Z,17.98
2019-05-01T09:13:18.973Z,15.85
2019-05-01T09:15:48.221Z,15.25
2019-05-01T09:18:19.007Z,15.48
2019-05-01T09:20:50.967Z,14.98
2019-05-01T09:23:21.110Z,18.32
2019-05-01T09:26:16.124Z,17.48
2019-05-01T09:28:49.543Z,18.05
2019-05-01T09:31:21.275Z,17.00
2019-05-01T09:33:54.427Z,18.42
2019-05-01T09:36:24.487Z,14.40
2019-05-01T09:38:54.794Z,17.30
2019-05-01T09:41:37.445Z,17.17
2019-05-01T09:43:56.682Z,18.17
2019-05-01T09:46:27.800Z,14.20
2019-05-01T09:48:58.386Z,16.05
2019-05-01T09:51:56.590Z,15.10
2019-05-01T09:54:48.437Z,14.40
2019-05-01T09:57:18.428Z,14.87
2019-05-01T09:59:51.755Z,18.90
2019-05-01T10:02:24.944Z,17.25
2019-05-01T10:04:55.293Z,17.55
2019-05-01T10:07:28.884Z,16.75
2019-05-01T10:09:56.652Z,16.27
2019-05-01T10:12:26.413Z,17.60
2019-05-01T10:14:58.965Z,15.60
2019-05-01T10:17:28.745Z,14.55
2019-05-01T10:19:58.453Z,18.48
2019-05-01T10:22:32.879Z,19.00
2019-05-01T10:25:02.666Z,19.25
2019-05-01T10:27:35.768Z,18.98
2019-05-01T10:30:31.754Z,16.37
2019-05-01T10:33:21.432Z,19.42
2019-05-01T10:36:08.479Z,16.52
2019-05-01T10:38:39.982Z,18.27
2019-05-01T10:41:10.631Z,17.07
2019-05-01T10:43:43.986Z,19.30
2019-05-01T10:46:13.654Z,15.72
2019-05-01T10:48:43.331Z,16.55
2019-05-01T10:51:12.994Z,13.62
2019-05-01T10:53:43.271Z,11.85
2019-05-01T10:56:13.201Z,12.28
2019-05-01T10:58:42.925Z,14.28
2019-05-01T11:01:27.201Z,17.65
2019-05-01T11:03:57.044Z,15.65
2019-05-01T11:06:29.882Z,16.05
2019-05-01T11:08:59.633Z,16.15
2019-05-01T11:11:30.177Z,14.55
2019-05-01T11:13:59.778Z,16.27
2019-05-01T11:16:29.481Z,13.32
2019-05-01T11:18:59.275Z,14.10
2019-05-01T11:21:29.076Z,12.73
2019-05-01T11:23:58.729Z,13.10
2019-05-01T11:26:45.128Z,13.80
2019-05-01T11:29:15.237Z,13.58
2019-05-01T11:32:11.461Z,13.05
2019-05-01T11:35:12.161Z,11.38
2019-05-01T11:37:56.874Z,13.32
2019-05-01T11:40:35.831Z,9.73
2019-05-01T11:43:09.000Z,10.82
2019-05-01T11:45:38.855Z,10.28
2019-05-01T11:48:08.753Z,9.38
2019-05-01T11:50:38.864Z,14.98
2019-05-01T11:53:08.694Z,17.65
2019-05-01T11:55:38.572Z,18.05
2019-05-01T11:58:08.369Z,14.13
2019-05-01T12:00:38.339Z,11.35
2019-05-01T12:03:08.302Z,11.30
2019-05-01T12:05:38.063Z,12.07
2019-05-01T12:08:26.704Z,12.53
2019-05-01T12:11:16.918Z,9.58
2019-05-01T12:13:47.603Z,11.22
2019-05-01T12:16:36.226Z,10.82
2019-05-01T12:19:06.214Z,13.50
2019-05-01T12:21:36.016Z,11.53
2019-05-01T12:24:05.884Z,11.83
2019-05-01T12:26:35.559Z,12.88
2019-05-01T12:29:05.435Z,10.72
2019-05-01T12:31:35.261Z,10.55
2019-05-01T12:34:05.243Z,14.90
2019-05-01T12:36:39.250Z,11.55
2019-05-01T12:39:11.433Z,12.45
2019-05-01T12:41:46.951Z,11.60
2019-05-01T12:44:16.826Z,20.08
2019-05-01T12:46:55.650Z,11.15
2019-05-01T12:49:25.522Z,12.25
2019-05-01T12:52:09.920Z,12.00
2019-05-01T12:54:52.090Z,11.22
2019-05-01T12:57:27.286Z,12.03
2019-05-01T13:00:08.931Z,11.48
2019-05-01T13:02:36.385Z,12.90
2019-05-01T13:05:06.355Z,11.80
2019-05-01T13:07:36.375Z,14.25
2019-05-01T13:10:11.411Z,12.37
2019-05-01T13:12:41.058Z,13.70
2019-05-01T13:15:18.821Z,12.88
2019-05-01T13:17:48.537Z,13.00
2019-05-01T13:20:18.523Z,13.75
2019-05-01T13:22:49.810Z,13.58
2019-05-01T13:25:23.034Z,12.23
2019-05-01T13:28:11.693Z,12.25
2019-05-01T13:31:03.178Z,11.85
2019-05-01T13:39:15.830Z,16.55
2019-05-01T13:41:45.679Z,15.20
2019-05-01T13:44:15.385Z,16.95
2019-05-01T13:46:45.165Z,13.03
2019-05-01T13:49:14.976Z,13.20
2019-05-01T13:51:44.754Z,13.72
2019-05-01T13:54:14.509Z,16.40
2019-05-01T13:56:48.047Z,15.80
2019-05-01T13:59:17.862Z,12.18
2019-05-01T14:01:47.493Z,12.93
2019-05-01T14:04:21.515Z,11.85
2019-05-01T14:06:51.625Z,12.23
2019-05-01T14:09:25.533Z,12.68
2019-05-01T14:11:55.399Z,12.55
2019-05-01T14:14:25.136Z,15.58
2019-05-01T14:16:54.840Z,18.10
2019-05-01T14:19:24.709Z,13.48
2019-05-01T14:22:20.062Z,14.70
2019-05-01T14:24:57.190Z,13.38
2019-05-01T14:27:29.489Z,19.95
2019-05-01T14:29:59.231Z,15.50
2019-05-01T14:32:31.200Z,16.32
2019-05-01T14:35:00.931Z,15.78
2019-05-01T14:37:35.447Z,17.70
2019-05-01T14:40:11.590Z,17.42
2019-05-01T14:42:41.277Z,13.32
2019-05-01T14:48:31.238Z,14.98
2019-05-01T14:48:51.671Z,13.55
2019-05-01T14:51:13.045Z,15.93
2019-05-01T14:54:14.515Z,16.37
2019-05-01T14:56:59.223Z,15.50
2019-05-01T15:02:19.341Z,13.13
2019-05-01T15:04:54.817Z,13.35
2019-05-01T15:07:43.603Z,14.98
2019-05-01T15:10:13.905Z,14.03
2019-05-01T15:12:45.284Z,14.15
2019-05-01T15:19:25.415Z,12.35
2019-05-01T15:22:17.200Z,15.58
2019-05-01T15:24:51.034Z,14.07
2019-05-01T15:27:20.774Z,13.25
2019-05-01T15:29:50.529Z,13.60
2019-05-01T15:32:25.133Z,19.92
2019-05-01T15:34:54.978Z,14.50
2019-05-01T15:37:24.785Z,14.63
2019-05-01T15:40:16.330Z,14.55
2019-05-01T15:42:51.149Z,15.50
2019-05-01T15:45:21.158Z,18.20
2019-05-01T15:47:50.980Z,17.25
2019-05-01T15:50:20.882Z,19.20
2019-05-01T15:52:50.822Z,18.00
2019-05-01T15:55:20.621Z,15.53
2019-05-01T15:57:50.342Z,17.25
2019-05-01T16:00:21.170Z,14.60
2019-05-01T16:02:52.331Z,15.10
2019-05-01T16:05:24.740Z,18.40
2019-05-01T16:08:09.132Z,17.02
2019-05-01T16:10:34.172Z,17.80
2019-05-01T16:13:04.696Z,16.82
2019-05-01T16:15:35.560Z,14.63
2019-05-01T16:18:05.556Z,17.92
2019-05-01T16:20:35.311Z,13.98
2019-05-01T16:23:05.272Z,18.60
2019-05-01T16:25:35.059Z,17.82
2019-05-01T16:28:05.056Z,14.73
2019-05-01T16:30:35.007Z,19.60
2019-05-01T16:33:05.109Z,15.55
2019-05-01T16:35:34.879Z,16.45
2019-05-01T16:38:06.279Z,16.77
2019-05-01T16:40:58.015Z,20.10
2019-05-01T16:43:27.834Z,15.53
2019-05-01T16:45:59.637Z,17.32
2019-05-01T16:48:29.165Z,15.28
2019-05-01T16:50:58.849Z,19.65
2019-05-01T16:53:28.633Z,16.35
2019-05-01T16:55:58.455Z,15.63
2019-05-01T16:58:28.338Z,18.27
2019-05-01T17:01:14.142Z,15.60
2019-05-01T17:04:17.990Z,19.03
2019-05-01T17:07:16.351Z,17.30
2019-05-01T17:09:58.403Z,15.03
2019-05-01T17:12:31.901Z,18.00
2019-05-01T17:15:01.712Z,16.73
2019-05-01T17:17:31.840Z,21.50
2019-05-01T17:20:01.635Z,17.23
2019-05-01T17:22:31.490Z,20.03
2019-05-01T17:25:01.355Z,20.73
2019-05-01T17:27:31.615Z,17.10
2019-05-01T17:30:01.484Z,16.50
2019-05-01T17:32:31.226Z,17.73
2019-05-01T17:35:06.513Z,16.50
2019-05-01T17:37:33.667Z,16.37
2019-05-01T17:40:03.390Z,15.93
2019-05-01T17:42:37.556Z,16.13
2019-05-01T17:45:04.618Z,15.68
2019-05-01T17:47:34.370Z,15.13
2019-05-01T17:50:04.267Z,17.65
2019-05-01T17:52:34.081Z,13.43
2019-05-01T17:55:03.805Z,14.73
2019-05-01T17:57:33.983Z,14.97
2019-05-01T18:00:06.988Z,16.10
2019-05-01T18:02:47.802Z,14.38
2019-05-01T18:05:23.489Z,14.58
2019-05-01T18:07:53.330Z,13.50
2019-05-01T18:10:23.108Z,13.23
2019-05-01T18:12:53.070Z,15.13
2019-05-01T18:15:22.853Z,15.43
2019-05-01T18:17:52.795Z,13.78
2019-05-01T18:20:22.522Z,15.15
2019-05-01T18:23:14.027Z,13.68
2019-05-01T18:25:47.494Z,13.87
2019-05-01T18:28:35.052Z,14.97
2019-05-01T18:31:07.807Z,16.43
2019-05-01T18:33:37.597Z,16.63
2019-05-01T18:36:07.672Z,12.60
2019-05-01T18:38:59.454Z,15.77
2019-05-01T18:41:43.598Z,12.53
2019-05-01T18:44:13.402Z,17.47
2019-05-01T18:46:43.207Z,19.47
2019-05-01T18:49:13.288Z,14.53
2019-05-01T18:51:43.195Z,18.45
2019-05-01T18:54:13.017Z,16.20
2019-05-01T18:56:45.914Z,20.77
2019-05-01T18:59:15.819Z,18.70
2019-05-01T19:01:48.479Z,15.60
2019-05-01T19:04:57.272Z,19.10
2019-05-01T19:07:29.386Z,16.87
2019-05-01T19:09:59.162Z,18.75
2019-05-01T19:13:07.824Z,18.50
2019-05-01T19:15:37.769Z,24.10
2019-05-01T19:18:07.742Z,19.42
2019-05-01T19:20:37.673Z,19.20
2019-05-01T19:23:07.540Z,18.83
2019-05-01T19:25:43.290Z,22.62
2019-05-01T19:28:13.246Z,19.80
2019-05-01T19:30:43.043Z,16.60
2019-05-01T19:33:13.069Z,17.67
2019-05-01T19:35:42.831Z,17.67
2019-05-01T19:38:13.416Z,17.35
2019-05-01T19:40:43.252Z,16.23
2019-05-01T19:47:03.485Z,20.93
2019-05-01T19:49:36.605Z,18.65
2019-05-01T19:52:06.649Z,15.93
2019-05-01T19:54:37.621Z,17.97
2019-05-01T19:57:07.834Z,19.23
2019-05-01T19:59:37.997Z,18.20
2019-05-01T20:02:09.684Z,15.73
2019-05-01T20:04:45.171Z,16.43
2019-05-01T20:07:19.743Z,17.10
2019-05-01T20:09:57.116Z,15.53
2019-05-01T20:12:24.264Z,15.70
2019-05-01T20:14:55.755Z,18.77
2019-05-01T20:17:28.312Z,19.77
2019-05-01T20:20:00.161Z,18.47
2019-05-01T20:22:30.670Z,15.97
2019-05-01T20:25:03.053Z,14.47
2019-05-01T20:27:36.781Z,20.50
2019-05-01T20:30:14.617Z,14.27
2019-05-01T20:32:45.466Z,16.77
2019-05-01T20:35:15.422Z,17.27
2019-05-01T20:37:47.773Z,15.13
2019-05-01T20:40:18.217Z,16.83
2019-05-01T20:42:47.975Z,13.97
2019-05-01T20:45:18.613Z,18.10
2019-05-01T20:47:49.337Z,17.60
2019-05-01T20:50:19.278Z,14.87
2019-05-01T20:52:49.067Z,14.90
2019-05-01T20:55:18.673Z,16.10
2019-05-01T20:57:48.729Z,13.87
2019-05-01T21:00:29.883Z,15.87
2019-05-01T21:03:01.629Z,16.57
2019-05-01T21:05:40.810Z,16.80
2019-05-01T21:08:14.138Z,15.67
2019-05-01T21:10:51.358Z,19.03
2019-05-01T21:13:23.039Z,16.33
2019-05-01T21:15:56.288Z,17.63
2019-05-01T21:18:25.941Z,20.70
2019-05-01T21:20:55.323Z,19.40
2019-05-01T21:23:25.154Z,21.23
2019-05-01T21:25:54.884Z,21.37
2019-05-01T21:28:24.569Z,23.63
2019-05-01T21:30:54.452Z,23.30
2019-05-01T21:33:25.185Z,22.37
2019-05-01T21:35:54.978Z,22.10
2019-05-01T21:38:24.834Z,24.23
2019-05-01T21:40:54.534Z,21.77
2019-05-01T21:43:27.920Z,22.40
2019-05-01T21:45:55.747Z,21.47
2019-05-01T21:48:25.509Z,27.50
2019-05-01T21:50:57.955Z,26.90
2019-05-01T21:53:26.860Z,22.97
2019-05-01T21:55:56.525Z,23.63
2019-05-01T21:58:29.785Z,27.20
2019-05-01T22:00:59.667Z,24.90
2019-05-01T22:03:31.896Z,27.40
2019-05-01T22:06:01.581Z,24.33
2019-05-01T22:08:34.431Z,25.70
2019-05-01T22:11:03.580Z,23.43
2019-05-01T22:13:33.488Z,23.83
2019-05-01T22:16:10.018Z,26.80
2019-05-01T22:19:16.619Z,25.23
2019-05-01T22:22:08.117Z,23.80
2019-05-01T22:24:48.501Z,27.23
2019-05-01T22:27:21.514Z,25.07
2019-05-01T22:30:00.390Z,24.47
2019-05-01T22:32:39.885Z,27.17
2019-05-01T22:35:22.481Z,23.87
2019-05-01T22:37:52.197Z,26.13
2019-05-01T22:40:40.205Z,25.90
2019-05-01T22:43:09.982Z,25.37
2019-05-01T22:45:39.597Z,25.07
2019-05-01T22:48:09.294Z,23.17
2019-05-01T22:50:39.039Z,27.67
2019-05-01T22:53:13.098Z,25.77
2019-05-01T22:55:40.064Z,24.77
2019-05-01T22:58:09.786Z,25.90
2019-05-01T23:00:44.221Z,24.87
2019-05-01T23:03:21.618Z,26.60
2019-05-01T23:05:51.329Z,23.67
2019-05-01T23:08:21.029Z,28.63
2019-05-01T23:10:51.177Z,24.70
2019-05-01T23:13:20.904Z,26.10
2019-05-01T23:15:51.526Z,27.30
2019-05-01T23:18:22.013Z,25.43
2019-05-01T23:20:51.681Z,24.17
2019-05-01T23:23:21.612Z,24.57
2019-05-01T23:25:51.322Z,28.93
2019-05-01T23:28:21.061Z,23.57
2019-05-01T23:30:50.856Z,28.70
2019-05-01T23:33:20.613Z,25.57
2019-05-01T23:35:50.518Z,29.97
2019-05-01T23:38:20.302Z,26.23
2019-05-01T23:40:51.126Z,28.33
2019-05-01T23:43:22.972Z,24.87
2019-05-01T23:45:52.863Z,24.87
2019-05-01T23:48:22.554Z,24.07
2019-05-01T23:50:52.299Z,27.03
2019-05-01T23:53:22.101Z,25.10
2019-05-01T23:55:54.652Z,25.60
2019-05-01T23:58:23.240Z,24.87
